Time;durP1;ratioP1;P1;durP2;ratioP2;P2;SDS_P1;SDS_P2;PMS_P1;PMS_P2;Temp;Humidity;BMP_temperature;BMP_pressure;BME280_temperature;BME280_humidity;BME280_pressure;Samples;Min_cycle;Max_cycle;Signal;HPM_P1;HPM_P2
2023/10/31 00:02:11;;;;;;;0.30;0.30;;;11.20;93.00;;;;;;6214439;23;20008;-79
2023/10/31 00:04:37;;;;;;;0.35;0.35;;;11.10;92.90;;;;;;6187342;23;20467;-78
2023/10/31 00:07:03;;;;;;;0.20;0.20;;;11.10;92.90;;;;;;6187716;23;20012;-78
2023/10/31 00:09:29;;;;;;;1.17;0.30;;;11.00;93.00;;;;;;6207939;23;20468;-78
2023/10/31 00:11:54;;;;;;;0.25;0.25;;;11.00;93.00;;;;;;6182400;23;20013;-78
2023/10/31 00:14:20;;;;;;;0.25;0.25;;;11.00;93.00;;;;;;6157574;23;20056;-78
2023/10/31 00:16:48;;;;;;;0.65;0.32;;;10.90;92.90;;;;;;6185798;23;19997;-78
2023/10/31 00:19:14;;;;;;;0.60;0.30;;;10.90;93.00;;;;;;6188177;23;19997;-79
2023/10/31 00:21:40;;;;;;;0.57;0.20;;;10.90;93.00;;;;;;6184641;23;20084;-78
2023/10/31 00:24:06;;;;;;;0.30;0.30;;;10.90;93.00;;;;;;6214055;23;20020;-78
2023/10/31 00:26:31;;;;;;;0.30;0.28;;;10.90;93.00;;;;;;6187610;23;20008;-78
2023/10/31 00:28:57;;;;;;;0.40;0.30;;;10.80;92.90;;;;;;6187622;23;20437;-78
2023/10/31 00:31:23;;;;;;;0.40;0.40;;;10.90;93.00;;;;;;6154998;23;20013;-78
2023/10/31 00:33:48;;;;;;;0.30;0.30;;;10.90;93.00;;;;;;6185614;23;20015;-77
2023/10/31 00:36:14;;;;;;;0.32;0.32;;;10.80;93.00;;;;;;6214311;23;20455;-77
2023/10/31 00:38:40;;;;;;;0.30;0.30;;;10.80;93.00;;;;;;6210609;23;20001;-79
2023/10/31 00:41:06;;;;;;;0.40;0.40;;;10.80;93.30;;;;;;6183767;23;20508;-78
2023/10/31 00:43:31;;;;;;;0.85;0.47;;;10.80;93.00;;;;;;6182978;23;20005;-78
2023/10/31 00:45:57;;;;;;;0.30;0.30;;;10.80;92.90;;;;;;6187181;23;20499;-78
2023/10/31 00:48:23;;;;;;;0.32;0.30;;;10.80;92.90;;;;;;6213317;23;20846;-78
2023/10/31 00:50:48;;;;;;;0.47;0.38;;;10.80;92.90;;;;;;6187534;23;20077;-78
2023/10/31 00:53:15;;;;;;;0.47;0.38;;;10.70;92.90;;;;;;6179459;23;20017;-77
2023/10/31 00:55:40;;;;;;;0.47;0.40;;;10.80;93.00;;;;;;6182066;23;20016;-78
2023/10/31 00:58:06;;;;;;;0.40;0.40;;;10.70;92.90;;;;;;6184009;23;20013;-77
2023/10/31 01:00:34;;;;;;;0.65;0.40;;;10.70;93.00;;;;;;6157499;23;20092;-78
2023/10/31 01:02:59;;;;;;;0.20;0.20;;;10.70;93.00;;;;;;6183416;23;20460;-78
2023/10/31 01:05:26;;;;;;;0.30;0.22;;;10.70;93.00;;;;;;6182124;23;20017;-78
2023/10/31 01:07:52;;;;;;;0.30;0.30;;;10.70;93.00;;;;;;6183972;23;20450;-78
2023/10/31 01:10:18;;;;;;;0.47;0.40;;;10.70;93.00;;;;;;6187398;23;20008;-77
2023/10/31 01:12:43;;;;;;;0.52;0.47;;;10.70;93.00;;;;;;6158791;23;20012;-77
2023/10/31 01:15:09;;;;;;;0.60;0.50;;;10.60;93.00;;;;;;6210079;23;20341;-78
2023/10/31 01:17:35;;;;;;;0.50;0.50;;;10.60;93.00;;;;;;6186942;23;20437;-78
2023/10/31 01:20:00;;;;;;;1.45;0.70;;;10.60;93.00;;;;;;6213897;23;20032;-78
2023/10/31 01:22:26;;;;;;;1.83;0.80;;;10.60;93.00;;;;;;6177354;23;20517;-77
2023/10/31 01:24:52;;;;;;;1.20;0.73;;;10.60;93.00;;;;;;6186399;23;20012;-78
2023/10/31 01:27:18;;;;;;;1.15;0.82;;;10.60;93.00;;;;;;6213729;23;20337;-77
2023/10/31 01:29:43;;;;;;;1.95;1.10;;;10.70;93.00;;;;;;6186429;23;20012;-78
2023/10/31 01:32:09;;;;;;;1.42;1.05;;;10.70;93.00;;;;;;6187273;23;20012;-78
2023/10/31 01:34:35;;;;;;;1.52;0.98;;;10.60;92.90;;;;;;6162176;23;20437;-78
2023/10/31 01:37:00;;;;;;;0.93;0.80;;;10.70;93.00;;;;;;6186571;23;20008;-78
2023/10/31 01:39:26;;;;;;;1.00;0.80;;;10.70;92.90;;;;;;6187256;23;20087;-78
2023/10/31 01:41:54;;;;;;;1.58;1.17;;;10.70;92.90;;;;;;6187019;23;20066;-78
2023/10/31 01:44:20;;;;;;;2.00;1.23;;;10.70;93.20;;;;;;6210707;23;20032;-77
2023/10/31 01:46:46;;;;;;;2.05;1.17;;;10.70;92.90;;;;;;6187533;23;20063;-78
2023/10/31 01:49:13;;;;;;;2.25;1.30;;;10.70;92.90;;;;;;6185679;23;20067;-78
2023/10/31 01:51:41;;;;;;;1.40;1.00;;;10.70;92.90;;;;;;6186880;23;20016;-79
2023/10/31 01:54:09;;;;;;;1.48;0.95;;;10.80;92.90;;;;;;6213495;23;20388;-78
2023/10/31 01:56:35;;;;;;;1.70;1.13;;;10.70;92.90;;;;;;6187392;23;20007;-78
2023/10/31 01:59:01;;;;;;;2.50;1.42;;;10.70;92.90;;;;;;6186491;23;20095;-77
2023/10/31 02:01:27;;;;;;;1.52;1.05;;;10.80;92.90;;;;;;6183600;23;20008;-78
2023/10/31 02:03:53;;;;;;;2.83;1.50;;;10.70;92.90;;;;;;6213871;23;20417;-78
2023/10/31 02:06:19;;;;;;;1.83;1.35;;;10.70;92.90;;;;;;6186769;23;20139;-78
2023/10/31 02:08:47;;;;;;;3.65;1.40;;;10.70;92.90;;;;;;6187099;23;20449;-78
2023/10/31 02:11:13;;;;;;;2.67;1.55;;;10.70;92.90;;;;;;6213110;23;20009;-78
2023/10/31 02:13:39;;;;;;;2.05;1.33;;;10.70;92.90;;;;;;6187516;23;20015;-78
2023/10/31 02:16:05;;;;;;;1.65;1.20;;;10.70;92.90;;;;;;6161783;23;20015;-78
2023/10/31 02:18:31;;;;;;;1.90;1.23;;;10.70;92.90;;;;;;6186805;23;20460;-78
2023/10/31 02:20:57;;;;;;;1.67;1.20;;;10.80;92.90;;;;;;6156940;23;20441;-78
2023/10/31 02:23:23;;;;;;;1.70;1.10;;;10.80;92.90;;;;;;6184342;23;20465;-78
2023/10/31 02:25:48;;;;;;;1.80;1.20;;;10.80;92.90;;;;;;6187028;23;20083;-78
2023/10/31 02:28:14;;;;;;;1.50;1.05;;;10.70;92.90;;;;;;6187454;23;20103;-78
2023/10/31 02:30:40;;;;;;;2.22;1.25;;;10.70;92.90;;;;;;6162061;23;20108;-78
2023/10/31 02:33:06;;;;;;;1.63;1.05;;;10.70;92.90;;;;;;6162792;23;20112;-77
2023/10/31 02:35:32;;;;;;;1.05;0.98;;;10.70;92.90;;;;;;6214129;23;20005;-78
2023/10/31 02:37:58;;;;;;;1.77;1.00;;;10.70;92.90;;;;;;6187431;23;20011;-78
2023/10/31 02:40:23;;;;;;;1.10;0.90;;;10.80;92.90;;;;;;6185104;23;20008;-78
2023/10/31 02:42:49;;;;;;;3.03;1.17;;;10.90;92.90;;;;;;6163014;23;20413;-78
2023/10/31 02:45:15;;;;;;;3.42;1.27;;;10.70;92.80;;;;;;6185996;23;20332;-78
2023/10/31 02:47:41;;;;;;;2.08;1.30;;;10.80;92.90;;;;;;6188336;23;20012;-78
2023/10/31 02:50:07;;;;;;;1.83;1.40;;;10.80;92.90;;;;;;6188151;23;20023;-79
2023/10/31 02:52:32;;;;;;;2.78;1.60;;;10.80;92.80;;;;;;6195160;23;20024;-78
2023/10/31 02:54:58;;;;;;;2.22;1.27;;;10.80;92.90;;;;;;6188813;23;20099;-78
2023/10/31 02:57:24;;;;;;;2.30;1.50;;;10.80;92.80;;;;;;6182656;23;20001;-79
2023/10/31 02:59:49;;;;;;;2.90;1.50;;;10.90;92.90;;;;;;6179953;23;20024;-79
2023/10/31 03:02:15;;;;;;;1.70;1.40;;;10.80;92.80;;;;;;6183812;23;20342;-79
2023/10/31 03:04:41;;;;;;;1.77;1.20;;;10.80;92.80;;;;;;6176654;23;20050;-79
2023/10/31 03:07:07;;;;;;;2.50;1.40;;;10.90;92.90;;;;;;6157039;23;20017;-79
2023/10/31 03:09:32;;;;;;;2.80;1.40;;;10.80;92.90;;;;;;6182529;23;20008;-79
2023/10/31 03:11:58;;;;;;;2.70;1.52;;;10.80;92.80;;;;;;6180634;23;20013;-79
2023/10/31 03:14:24;;;;;;;2.38;1.55;;;10.90;92.90;;;;;;6183276;23;20012;-78
2023/10/31 03:16:50;;;;;;;2.60;1.60;;;10.80;92.90;;;;;;6183218;23;20012;-79
2023/10/31 03:19:16;;;;;;;2.70;1.60;;;10.80;92.90;;;;;;6161666;23;20005;-79
2023/10/31 03:21:42;;;;;;;3.22;1.42;;;10.80;92.90;;;;;;6187920;23;20009;-78
2023/10/31 03:24:08;;;;;;;2.13;1.50;;;10.80;92.80;;;;;;6190011;23;20075;-79
2023/10/31 03:26:33;;;;;;;2.78;1.60;;;10.80;92.90;;;;;;6190758;23;20036;-79
2023/10/31 03:28:59;;;;;;;3.40;1.90;;;10.80;92.90;;;;;;6191323;23;20016;-79
2023/10/31 03:31:25;;;;;;;2.13;1.50;;;10.80;92.90;;;;;;6216593;23;20091;-79
2023/10/31 03:33:51;;;;;;;3.45;1.80;;;10.80;92.90;;;;;;6162120;23;20093;-79
2023/10/31 03:36:17;;;;;;;2.67;1.50;;;10.80;92.90;;;;;;6214682;23;20036;-79
2023/10/31 03:38:43;;;;;;;2.00;1.38;;;10.80;92.90;;;;;;6189425;23;20008;-78
2023/10/31 03:41:09;;;;;;;3.15;1.85;;;10.90;92.90;;;;;;6215643;23;20027;-78
2023/10/31 03:43:35;;;;;;;2.78;1.90;;;10.80;92.90;;;;;;6189621;23;20023;-78
2023/10/31 03:46:00;;;;;;;2.15;1.55;;;10.90;92.90;;;;;;6189639;23;20005;-79
2023/10/31 03:48:26;;;;;;;2.38;1.70;;;10.90;92.90;;;;;;6189490;23;20009;-79
2023/10/31 03:50:52;;;;;;;3.47;2.00;;;10.90;92.90;;;;;;6214639;23;20438;-79
2023/10/31 03:53:18;;;;;;;2.17;1.50;;;10.90;92.90;;;;;;6192131;23;20015;-78
2023/10/31 03:55:44;;;;;;;2.13;1.50;;;10.90;92.90;;;;;;6185300;23;20460;-78
2023/10/31 03:58:11;;;;;;;2.65;1.42;;;10.90;92.90;;;;;;6214290;23;20008;-79
2023/10/31 04:00:38;;;;;;;2.03;1.48;;;10.90;92.90;;;;;;6165582;23;20005;-78
2023/10/31 04:03:04;;;;;;;2.45;1.33;;;10.90;92.90;;;;;;6180111;23;20005;-78
2023/10/31 04:05:29;;;;;;;2.00;1.48;;;10.80;93.20;;;;;;6185082;23;20009;-79
2023/10/31 04:07:55;;;;;;;1.83;1.20;;;10.80;92.90;;;;;;6185815;23;20013;-79
2023/10/31 04:10:21;;;;;;;1.85;1.13;;;10.80;92.90;;;;;;6183878;23;20082;-79
2023/10/31 04:12:47;;;;;;;1.48;1.00;;;10.80;92.90;;;;;;6188786;23;20012;-79
2023/10/31 04:15:14;;;;;;;1.95;1.15;;;10.80;92.90;;;;;;6184069;23;20013;-79
2023/10/31 04:17:39;;;;;;;1.80;1.00;;;10.80;92.90;;;;;;6138330;23;20009;-79
2023/10/31 04:20:06;;;;;;;1.35;1.00;;;10.80;93.00;;;;;;6187623;23;20036;-79
2023/10/31 04:22:31;;;;;;;1.17;0.88;;;10.80;93.00;;;;;;6160276;23;20443;-79
2023/10/31 04:24:57;;;;;;;0.80;0.70;;;10.80;93.00;;;;;;6136084;23;20020;-79
2023/10/31 04:27:23;;;;;;;1.00;0.90;;;10.70;93.00;;;;;;6135265;23;20013;-78
2023/10/31 04:29:49;;;;;;;1.02;0.73;;;10.70;93.00;;;;;;6185194;23;20019;-79
2023/10/31 04:32:14;;;;;;;0.90;0.68;;;10.80;93.00;;;;;;6158519;23;20506;-79
2023/10/31 04:34:40;;;;;;;2.13;1.17;;;10.70;93.00;;;;;;6131432;23;20084;-79
2023/10/31 04:37:06;;;;;;;1.13;0.85;;;10.80;93.00;;;;;;6133246;23;20009;-79
2023/10/31 04:39:32;;;;;;;1.13;0.88;;;10.70;93.00;;;;;;6132294;23;20085;-79
2023/10/31 04:41:57;;;;;;;1.08;0.80;;;10.70;93.00;;;;;;6153581;23;20010;-79
2023/10/31 04:44:23;;;;;;;1.75;0.80;;;10.70;93.00;;;;;;6157574;23;20009;-79
2023/10/31 04:46:49;;;;;;;1.85;0.80;;;10.70;93.00;;;;;;6158882;23;20009;-79
2023/10/31 04:49:15;;;;;;;1.40;1.02;;;10.70;93.00;;;;;;6184855;23;20379;-79
2023/10/31 04:51:41;;;;;;;1.05;0.90;;;10.70;93.00;;;;;;6181189;23;20013;-79
2023/10/31 04:54:07;;;;;;;0.93;0.70;;;10.70;93.00;;;;;;6205117;23;20005;-79
2023/10/31 04:56:33;;;;;;;0.95;0.85;;;10.80;93.00;;;;;;6184600;23;20009;-79
2023/10/31 04:58:59;;;;;;;1.65;1.00;;;10.70;93.00;;;;;;6182955;23;20031;-79
2023/10/31 05:01:25;;;;;;;1.45;0.80;;;10.80;93.00;;;;;;6186051;23;20088;-79
2023/10/31 05:03:52;;;;;;;1.70;1.30;;;10.70;93.00;;;;;;6184151;23;20009;-79
2023/10/31 05:06:21;;;;;;;2.17;1.02;;;10.80;93.00;;;;;;6184661;23;20401;-79
2023/10/31 05:08:48;;;;;;;1.15;0.90;;;10.70;93.00;;;;;;6189043;23;20012;-79
2023/10/31 05:11:16;;;;;;;2.90;1.20;;;10.70;93.00;;;;;;6196231;23;20019;-79
2023/10/31 05:13:41;;;;;;;1.30;1.02;;;10.70;93.00;;;;;;6165265;23;20055;-79
2023/10/31 05:16:07;;;;;;;1.70;1.05;;;10.70;93.00;;;;;;6220301;23;20294;-78
2023/10/31 05:18:37;;;;;;;1.35;0.90;;;10.80;93.10;;;;;;6163211;23;20005;-80
2023/10/31 05:21:03;;;;;;;1.75;1.00;;;10.70;93.00;;;;;;6193022;23;20012;-79
2023/10/31 05:23:29;;;;;;;0.88;0.80;;;10.70;93.00;;;;;;6184679;23;20433;-79
2023/10/31 05:25:55;;;;;;;1.20;1.00;;;10.70;93.00;;;;;;6231262;23;20068;-79
2023/10/31 05:28:21;;;;;;;1.20;1.00;;;10.70;93.10;;;;;;6202296;23;20056;-79
2023/10/31 05:30:47;;;;;;;2.95;0.95;;;10.70;93.10;;;;;;6225288;23;20012;-79
2023/10/31 05:33:15;;;;;;;1.63;1.10;;;10.70;93.10;;;;;;6170053;23;20001;-80
2023/10/31 05:35:41;;;;;;;1.33;0.98;;;10.70;93.10;;;;;;6197398;23;20321;-80
2023/10/31 05:38:07;;;;;;;1.13;1.02;;;10.70;93.10;;;;;;6199173;23;20060;-80
2023/10/31 05:40:35;;;;;;;1.95;1.00;;;10.70;93.10;;;;;;6193097;23;19996;-79
2023/10/31 05:43:02;;;;;;;1.30;1.00;;;10.70;93.10;;;;;;6160677;23;20036;-80
2023/10/31 05:45:28;;;;;;;1.13;0.70;;;10.70;93.10;;;;;;6217874;23;20004;-80
2023/10/31 05:47:53;;;;;;;1.08;0.80;;;10.70;93.10;;;;;;6188218;23;20016;-79
2023/10/31 05:50:19;;;;;;;1.92;0.88;;;10.70;93.10;;;;;;6185710;23;20016;-80
2023/10/31 05:52:44;;;;;;;1.10;0.80;;;10.70;93.10;;;;;;6187691;23;20019;-79
2023/10/31 05:55:11;;;;;;;0.60;0.52;;;10.60;93.10;;;;;;6189473;23;20366;-80
2023/10/31 05:57:40;;;;;;;0.70;0.50;;;10.60;93.20;;;;;;6187223;23;20045;-81
2023/10/31 06:00:07;;;;;;;1.67;0.75;;;10.60;93.20;;;;;;6163199;23;20068;-80
2023/10/31 06:02:34;;;;;;;0.52;0.40;;;10.60;93.20;;;;;;6185642;23;20445;-79
2023/10/31 06:05:00;;;;;;;0.75;0.45;;;10.60;93.20;;;;;;6179215;23;20016;-80
2023/10/31 06:07:25;;;;;;;0.40;0.40;;;10.50;93.10;;;;;;6161410;23;20555;-78
2023/10/31 06:09:51;;;;;;;0.68;0.60;;;10.60;93.20;;;;;;6162135;23;20040;-79
2023/10/31 06:12:17;;;;;;;0.50;0.43;;;10.50;93.20;;;;;;6213864;23;20013;-79
2023/10/31 06:14:43;;;;;;;0.35;0.28;;;10.50;93.20;;;;;;6186981;23;20009;-78
2023/10/31 06:17:09;;;;;;;0.40;0.40;;;10.50;93.20;;;;;;6214368;23;20004;-78
2023/10/31 06:19:36;;;;;;;0.22;0.22;;;10.40;93.20;;;;;;6187851;23;20531;-78
2023/10/31 06:22:03;;;;;;;0.40;0.40;;;10.40;93.20;;;;;;6213680;23;20009;-78
2023/10/31 06:24:28;;;;;;;1.35;0.38;;;10.40;93.20;;;;;;6162191;23;20011;-78
2023/10/31 06:26:54;;;;;;;0.20;0.20;;;10.40;93.50;;;;;;6213409;23;20001;-78
2023/10/31 06:29:20;;;;;;;0.30;0.30;;;10.30;93.30;;;;;;6213822;23;20012;-78
2023/10/31 06:31:45;;;;;;;0.43;0.43;;;10.30;93.30;;;;;;6181094;23;20009;-78
2023/10/31 06:34:11;;;;;;;0.32;0.32;;;10.30;93.30;;;;;;6186850;23;20020;-78
2023/10/31 06:36:37;;;;;;;0.38;0.38;;;10.30;93.30;;;;;;6214012;23;20025;-80
2023/10/31 06:39:03;;;;;;;0.80;0.60;;;10.30;93.30;;;;;;6181582;23;20012;-78
2023/10/31 06:41:28;;;;;;;0.60;0.50;;;10.40;93.30;;;;;;6214137;23;20032;-78
2023/10/31 06:43:54;;;;;;;2.58;0.80;;;10.30;93.30;;;;;;6157592;23;20433;-78
2023/10/31 06:46:20;;;;;;;2.05;0.80;;;10.30;93.30;;;;;;6187022;23;20009;-79
2023/10/31 06:48:45;;;;;;;2.83;0.70;;;10.40;93.30;;;;;;6161947;23;20040;-78
2023/10/31 06:51:11;;;;;;;1.73;0.95;;;10.30;93.20;;;;;;6187178;23;20016;-78
2023/10/31 06:53:37;;;;;;;1.20;0.70;;;10.40;93.20;;;;;;6186983;23;20440;-77
2023/10/31 06:56:03;;;;;;;1.58;1.00;;;10.50;93.20;;;;;;6162175;23;20005;-78
2023/10/31 06:58:28;;;;;;;0.77;0.70;;;10.50;93.20;;;;;;6187596;23;20087;-78
2023/10/31 07:00:55;;;;;;;1.85;1.20;;;10.50;93.40;;;;;;6162669;23;20015;-78
2023/10/31 07:03:20;;;;;;;1.30;0.85;;;10.50;93.10;;;;;;6190161;23;20389;-77
2023/10/31 07:05:46;;;;;;;0.80;0.80;;;10.60;93.10;;;;;;6187155;23;20004;-77
2023/10/31 07:08:12;;;;;;;1.05;0.77;;;10.60;93.10;;;;;;6187099;23;20088;-79
2023/10/31 07:10:38;;;;;;;3.08;1.30;;;10.60;93.10;;;;;;6186876;23;20035;-79
2023/10/31 07:13:03;;;;;;;1.63;0.93;;;10.50;93.10;;;;;;6186804;23;20004;-79
2023/10/31 07:15:29;;;;;;;2.13;1.25;;;10.60;93.10;;;;;;6161753;23;20443;-79
2023/10/31 07:17:55;;;;;;;1.63;1.05;;;10.60;93.10;;;;;;6213945;23;20444;-81
2023/10/31 07:20:21;;;;;;;1.73;1.10;;;10.50;93.10;;;;;;6184437;23;20054;-80
2023/10/31 07:22:47;;;;;;;2.53;1.27;;;10.50;93.10;;;;;;6186557;23;20016;-79
2023/10/31 07:25:12;;;;;;;2.00;1.20;;;10.60;93.10;;;;;;6186945;23;20510;-80
2023/10/31 07:27:38;;;;;;;1.67;1.15;;;10.60;93.10;;;;;;6213401;23;20044;-80
2023/10/31 07:30:06;;;;;;;1.98;1.30;;;10.50;93.40;;;;;;6214123;23;20009;-79
2023/10/31 07:32:32;;;;;;;4.00;1.45;;;10.60;93.10;;;;;;6152301;23;20024;-80
2023/10/31 07:34:58;;;;;;;2.67;1.42;;;10.60;93.10;;;;;;6182498;23;20039;-81
2023/10/31 07:37:24;;;;;;;3.47;1.77;;;10.60;93.10;;;;;;6159499;23;20430;-81
2023/10/31 07:47:01;;;;;;;3.17;1.80;;;10.60;93.10;;;;;;6047090;23;20085;-80
2023/10/31 07:59:36;;;;;;;4.13;2.30;;;10.70;92.90;;;;;;5841027;24;20383;-79
2023/10/31 08:34:06;;;;;;;2.03;1.33;;;11.10;92.80;;;;;;6039166;23;20035;-79
2023/10/31 09:21:52;;;;;;;1.65;1.13;;;11.70;92.50;;;;;;5999038;23;20067;-81
2023/10/31 09:31:31;;;;;;;2.47;0.73;;;12.00;92.40;;;;;;5725924;25;20118;-75
2023/10/31 09:34:11;;;;;;;1.23;0.88;;;12.10;92.30;;;;;;5749149;24;20474;-78
2023/10/31 09:36:39;;;;;;;1.25;0.90;;;12.20;92.30;;;;;;5744946;24;20073;-78
2023/10/31 09:40:05;;;;;;;2.38;1.20;;;12.30;92.30;;;;;;5740329;24;20126;-82
2023/10/31 09:50:19;;;;;;;3.97;1.55;;;12.40;92.10;;;;;;5611105;25;20402;-77
2023/10/31 10:26:01;;;;;;;1.70;1.40;;;12.60;92.10;;;;;;5583267;25;20038;-77
2023/10/31 10:31:24;;;;;;;4.60;1.42;;;12.70;92.00;;;;;;5704234;25;20028;-75
2023/10/31 10:38:15;;;;;;;1.27;1.15;;;12.70;92.10;;;;;;5717590;25;20394;-79
2023/10/31 10:41:32;;;;;;;2.65;1.48;;;12.70;92.10;;;;;;5755234;24;20048;-79
2023/10/31 10:44:47;;;;;;;2.30;1.55;;;12.80;92.10;;;;;;5814325;24;20101;-79
2023/10/31 11:02:56;;;;;;;1.85;1.17;;;12.90;91.90;;;;;;5703402;25;20021;-76
2023/10/31 11:05:33;;;;;;;1.77;1.15;;;13.00;92.00;;;;;;5708675;25;20088;-76
2023/10/31 11:08:26;;;;;;;1.60;1.33;;;13.00;92.00;;;;;;5660261;25;20065;-76
2023/10/31 11:46:17;;;;;;;4.93;2.90;;;13.40;91.60;;;;;;6040498;23;20042;-80
2023/10/31 11:57:17;;;;;;;4.72;2.92;;;13.30;91.70;;;;;;5742373;24;20031;-81
2023/10/31 12:03:26;;;;;;;4.90;3.10;;;13.40;91.60;;;;;;5986813;24;20020;-78
2023/10/31 12:06:04;;;;;;;4.95;3.08;;;13.40;91.60;;;;;;5933545;24;20104;-78
2023/10/31 12:43:44;;;;;;;4.57;2.85;;;13.00;91.90;;;;;;6273523;22;20347;-78
2023/10/31 12:46:41;;;;;;;5.75;3.17;;;13.10;91.80;;;;;;6326245;22;20039;-78
2023/10/31 12:49:23;;;;;;;5.10;3.15;;;13.30;91.60;;;;;;6269977;22;20015;-78
2023/10/31 12:52:26;;;;;;;5.53;3.35;;;13.40;91.40;;;;;;6209766;23;20069;-78
2023/10/31 12:54:59;;;;;;;7.72;3.53;;;13.50;91.30;;;;;;6116501;23;20041;-77
2023/10/31 13:12:11;;;;;;;5.82;3.00;;;13.30;91.50;;;;;;5883415;24;20005;-77
2023/10/31 13:18:14;;;;;;;5.95;2.83;;;13.40;91.50;;;;;;5836273;24;20029;-75
2023/10/31 13:21:03;;;;;;;5.68;3.05;;;13.50;91.30;;;;;;5831785;24;20019;-76
2023/10/31 13:23:47;;;;;;;5.72;3.33;;;13.40;91.30;;;;;;5870176;24;20017;-76
2023/10/31 13:26:24;;;;;;;4.30;2.75;;;13.40;91.30;;;;;;5954364;24;20017;-76
2023/10/31 13:29:09;;;;;;;4.30;2.88;;;13.40;91.30;;;;;;5968088;23;20040;-76
2023/10/31 13:31:35;;;;;;;4.55;2.72;;;13.40;91.40;;;;;;6015232;23;20028;-76
2023/10/31 13:34:01;;;;;;;4.72;2.92;;;13.20;91.40;;;;;;5984723;23;20144;-76
2023/10/31 13:36:26;;;;;;;7.32;3.50;;;13.20;91.50;;;;;;5963843;23;20072;-76
2023/10/31 13:38:52;;;;;;;5.20;3.05;;;13.20;91.50;;;;;;5981425;23;20021;-76
2023/10/31 13:41:18;;;;;;;4.88;3.15;;;13.10;91.60;;;;;;5951119;24;20840;-76
2023/10/31 13:43:43;;;;;;;5.47;2.75;;;13.10;91.60;;;;;;5904960;24;20155;-76
2023/10/31 13:46:09;;;;;;;4.03;2.58;;;13.00;91.60;;;;;;5933182;23;20017;-76
2023/10/31 13:48:35;;;;;;;3.97;2.67;;;13.00;91.70;;;;;;6032922;23;20076;-76
2023/10/31 13:51:24;;;;;;;4.72;2.55;;;13.00;91.80;;;;;;6076740;23;20403;-76
2023/10/31 13:54:15;;;;;;;4.03;2.10;;;13.00;91.70;;;;;;6231004;22;20023;-76
2023/10/31 13:56:41;;;;;;;5.43;2.47;;;13.00;91.70;;;;;;6290839;22;20097;-76
2023/10/31 13:59:35;;;;;;;4.25;2.80;;;13.00;91.60;;;;;;6310121;22;20018;-76
2023/10/31 14:02:30;;;;;;;4.07;2.50;;;13.00;91.60;;;;;;6322894;22;20011;-77
2023/10/31 14:05:13;;;;;;;4.35;2.63;;;12.90;91.60;;;;;;6184907;23;20021;-76
2023/10/31 14:08:34;;;;;;;3.55;2.28;;;12.90;91.60;;;;;;6127723;23;20087;-76
2023/10/31 14:14:02;;;;;;;4.05;2.47;;;12.90;91.60;;;;;;6061660;23;20046;-77
2023/10/31 14:16:29;;;;;;;3.80;2.10;;;12.90;91.80;;;;;;6065316;23;20025;-76
2023/10/31 14:18:55;;;;;;;3.20;1.92;;;12.90;91.60;;;;;;6064578;23;20022;-78
2023/10/31 14:21:21;;;;;;;3.90;2.08;;;12.80;91.60;;;;;;6041388;23;20042;-79
2023/10/31 14:24:23;;;;;;;3.05;1.88;;;12.80;91.60;;;;;;6050716;23;20478;-75
2023/10/31 14:27:15;;;;;;;2.95;1.70;;;12.80;91.60;;;;;;6055977;23;20023;-76
2023/10/31 14:40:41;;;;;;;2.47;1.67;;;12.80;91.60;;;;;;6040112;23;20058;-76
2023/10/31 14:43:20;;;;;;;2.65;1.90;;;12.80;91.60;;;;;;6019246;23;20100;-77
2023/10/31 15:04:20;;;;;;;1.85;1.15;;;12.70;91.40;;;;;;6029320;23;20095;-77
2023/10/31 15:10:55;;;;;;;2.17;0.88;;;12.70;91.40;;;;;;5977837;23;20024;-76
2023/10/31 15:21:11;;;;;;;0.60;0.60;;;12.70;91.40;;;;;;5931418;24;20507;-76
2023/10/31 15:23:48;;;;;;;0.95;0.77;;;12.70;91.40;;;;;;5959897;24;20032;-77
2023/10/31 15:26:39;;;;;;;1.13;0.90;;;12.50;91.40;;;;;;5925155;24;20018;-77
2023/10/31 15:29:26;;;;;;;;;;;12.50;91.40;;;;;;5880364;24;20029;-77
2023/10/31 16:07:45;;;;;;;2.20;0.90;;;12.10;91.70;;;;;;5858569;24;20112;-77
2023/10/31 16:10:32;;;;;;;0.75;0.75;;;12.10;91.70;;;;;;5956214;22;20024;-77
2023/10/31 16:16:14;;;;;;;0.85;0.70;;;12.10;91.80;;;;;;6191227;23;20140;-78
2023/10/31 16:18:40;;;;;;;1.13;0.80;;;12.00;91.90;;;;;;6182236;23;20065;-78
2023/10/31 16:21:14;;;;;;;1.65;1.08;;;12.00;91.90;;;;;;6154070;23;20099;-76
2023/10/31 16:23:41;;;;;;;1.15;1.02;;;12.00;91.90;;;;;;6161501;23;20051;-77
2023/10/31 16:26:07;;;;;;;0.98;0.73;;;12.10;92.00;;;;;;6208856;23;20068;-77
2023/10/31 16:28:33;;;;;;;1.30;0.90;;;12.00;92.00;;;;;;6183086;23;20005;-78
2023/10/31 16:30:59;;;;;;;1.35;1.00;;;11.90;92.00;;;;;;6209130;23;20025;-78
2023/10/31 16:33:26;;;;;;;1.00;0.85;;;12.00;92.00;;;;;;6159067;23;20037;-77
2023/10/31 16:35:52;;;;;;;1.40;1.00;;;12.00;92.10;;;;;;6206337;23;20110;-77
2023/10/31 16:38:18;;;;;;;1.30;1.00;;;12.00;92.10;;;;;;6230008;23;20020;-76
2023/10/31 16:40:44;;;;;;;1.23;0.88;;;12.00;92.10;;;;;;6228610;23;20027;-75
2023/10/31 16:44:11;;;;;;;0.65;0.65;;;11.90;92.10;;;;;;6270101;22;20015;-75
2023/10/31 16:47:23;;;;;;;0.50;0.50;;;12.00;92.10;;;;;;6170225;23;20071;-76
2023/10/31 17:00:57;;;;;;;0.82;0.80;;;11.90;92.10;;;;;;5991479;24;20021;-77
2023/10/31 17:08:32;;;;;;;0.80;0.80;;;11.80;92.10;;;;;;5882192;24;20010;-77
2023/10/31 17:15:07;;;;;;;0.50;0.50;;;11.80;92.10;;;;;;5873064;24;20101;-77
2023/10/31 17:17:34;;;;;;;1.48;0.85;;;11.80;92.10;;;;;;5868319;24;20029;-77
2023/10/31 17:20:00;;;;;;;0.55;0.50;;;11.70;92.10;;;;;;5867140;24;20048;-78
2023/10/31 17:22:26;;;;;;;0.90;0.80;;;11.80;92.40;;;;;;5816671;24;20068;-77
2023/10/31 17:24:52;;;;;;;1.42;0.90;;;11.70;92.10;;;;;;5842957;24;20105;-77
2023/10/31 17:27:19;;;;;;;0.68;0.68;;;11.80;92.10;;;;;;5842740;24;20022;-78
2023/10/31 17:29:45;;;;;;;0.90;0.60;;;11.70;92.10;;;;;;5890047;24;20024;-77
2023/10/31 17:32:11;;;;;;;1.98;0.60;;;11.80;92.20;;;;;;5901261;24;20453;-77
2023/10/31 17:34:37;;;;;;;2.95;1.10;;;11.80;92.20;;;;;;5911607;24;20012;-78
2023/10/31 17:37:03;;;;;;;0.60;0.60;;;11.60;92.10;;;;;;6003325;23;20054;-77
2023/10/31 17:39:28;;;;;;;0.95;0.73;;;11.70;92.20;;;;;;6012918;23;20331;-78
2023/10/31 17:41:54;;;;;;;0.75;0.75;;;11.70;92.20;;;;;;6012419;23;20087;-77
2023/10/31 17:44:20;;;;;;;1.75;1.00;;;11.70;92.20;;;;;;6008728;23;20024;-77
2023/10/31 17:46:46;;;;;;;1.42;0.98;;;11.70;92.20;;;;;;6012089;23;20498;-77
2023/10/31 17:49:12;;;;;;;1.27;0.88;;;11.70;92.20;;;;;;6142745;23;20037;-78
2023/10/31 17:51:41;;;;;;;1.30;1.00;;;11.70;92.20;;;;;;6126591;23;20041;-77
2023/10/31 17:54:07;;;;;;;3.08;1.10;;;11.70;92.20;;;;;;6179967;23;20004;-77
2023/10/31 17:56:33;;;;;;;1.08;0.85;;;11.70;92.20;;;;;;6245602;23;20007;-78
2023/10/31 17:58:59;;;;;;;1.42;0.88;;;11.70;92.20;;;;;;6244690;23;20087;-77
2023/10/31 18:01:24;;;;;;;1.23;0.90;;;11.70;92.20;;;;;;6217905;23;20454;-77
2023/10/31 18:03:51;;;;;;;0.70;0.70;;;11.70;92.20;;;;;;6217648;23;20447;-77
2023/10/31 18:06:16;;;;;;;1.02;0.82;;;11.70;92.20;;;;;;6218152;23;20089;-77
2023/10/31 18:08:42;;;;;;;1.52;1.02;;;11.70;92.30;;;;;;6193596;23;20083;-79
2023/10/31 18:11:09;;;;;;;1.17;0.82;;;11.70;92.30;;;;;;6221424;23;20086;-78
2023/10/31 18:13:34;;;;;;;2.08;1.02;;;11.70;92.30;;;;;;6222147;23;20083;-77
2023/10/31 18:16:00;;;;;;;1.15;0.90;;;11.60;92.50;;;;;;6221034;23;20278;-77
2023/10/31 18:18:26;;;;;;;0.88;0.73;;;11.70;92.30;;;;;;6195180;23;20016;-77
2023/10/31 18:20:53;;;;;;;1.50;0.82;;;11.70;92.30;;;;;;6195501;23;20000;-78
2023/10/31 18:23:19;;;;;;;0.93;0.63;;;11.70;92.30;;;;;;6220592;23;20032;-77
2023/10/31 18:25:45;;;;;;;0.93;0.88;;;11.70;92.30;;;;;;6224917;23;19996;-78
2023/10/31 18:28:12;;;;;;;1.80;1.00;;;11.70;92.30;;;;;;6223453;22;20103;-77
2023/10/31 18:30:38;;;;;;;1.35;0.82;;;11.70;92.40;;;;;;6243706;23;20000;-77
2023/10/31 18:33:04;;;;;;;0.93;0.70;;;11.70;92.40;;;;;;6219790;23;20006;-77
2023/10/31 18:35:30;;;;;;;1.23;0.80;;;11.70;92.40;;;;;;6221731;23;20004;-77
2023/10/31 18:37:56;;;;;;;0.80;0.80;;;11.70;92.40;;;;;;6192373;23;20012;-77
2023/10/31 18:40:22;;;;;;;1.23;0.75;;;11.70;92.30;;;;;;6241548;23;20079;-76
2023/10/31 18:42:47;;;;;;;0.70;0.70;;;11.70;92.30;;;;;;6219390;23;20028;-76
2023/10/31 18:45:14;;;;;;;1.27;0.90;;;11.70;92.40;;;;;;6223542;23;20004;-77
2023/10/31 18:47:42;;;;;;;0.90;0.70;;;11.70;92.30;;;;;;6250777;23;20000;-76
2023/10/31 18:50:08;;;;;;;1.70;1.10;;;11.70;92.40;;;;;;6219493;23;20000;-77
2023/10/31 18:52:33;;;;;;;1.02;0.77;;;11.70;92.30;;;;;;6190322;23;20005;-77
2023/10/31 18:54:59;;;;;;;0.55;0.55;;;11.70;92.40;;;;;;6192711;23;20012;-77
2023/10/31 18:57:29;;;;;;;0.82;0.73;;;11.70;92.40;;;;;;6217713;23;20034;-76
2023/10/31 18:59:55;;;;;;;1.50;0.93;;;11.70;92.40;;;;;;6218263;23;20038;-76
2023/10/31 19:02:21;;;;;;;1.30;0.70;;;11.70;92.30;;;;;;6218366;23;20002;-76
2023/10/31 19:04:47;;;;;;;0.90;0.70;;;11.70;92.30;;;;;;6218426;23;20079;-76
2023/10/31 19:07:12;;;;;;;0.60;0.60;;;11.70;92.40;;;;;;6218318;23;20004;-76